Aviation Digital Data Service (ADDS)

Output produced by METARs form (0238 UTC 22 April 2019)
found at http://www.aviationweather.gov/metar/data/
 
Forecast for: DAOO (ORAN/ES SENIA , DZ)
Text: TAF DAOO 212300Z 2200/2224 26012KT 9000 SCT020 BKN033
Forecast period: 0000 UTC 22 April 2019 to 0000 UTC 23 April 2019
Forecast type: FROM: standard forecast or significant change
Winds: from the W (260 degrees) at 14 MPH (12 knots; 6.2 m/s)
Visibility: 6 miles (9 km)
Ceiling: 3300 feet AGL
Clouds: scattered clouds at 2000 feet AGL
broken clouds at 3300 feet AGL
Weather: no significant weather forecast for this period
Text: PROB40
Forecast period: 0000 to 1200 UTC 22 April 2019
Forecast type: TEMPORARY: The following changes expected for less than half the time period
Visibility: 2.49 miles (4.01 km)
Ceiling: at least 12,000 feet AGL
Clouds: few clouds at 2600 feet AGL
Weather: TSRA  (rain associated with thunderstorm(s))